KTIK/TIK METAR and TAF weather

Enter ICAO airport designator
Station Type Date Time Source
KTIK METAR 2019/04/20 17:56 UTC NOAA

KTIK 201756Z AUTO 20013KT 10SM CLR 23/06 A2999 RMK AO2 SLP157 T02270060 10227 20079 58016


Station Type Date Time Source
KTIK Decoded METAR 2019/04/20 17:56 UTC NOAA

Tinker Air Force Base, OK, United States (KTIK) 35-25N 097-23W 397M
Apr 20, 2019 - 01:56 PM EDT / 2019.04.20 1756 UTC
Wind: from the SSW (200 degrees) at 15 MPH (13 KT):0
Visibility: 10 mile(s):0
Sky conditions: clear
Temperature: 72.9 F (22.7 C)
Dew Point: 42.8 F (6.0 C)
Relative Humidity: 33%
Pressure (altimeter): 29.99 in. Hg (1015 hPa)
Pressure tendency: 0.05 inches (1.6 hPa) lower than three hours ago
ob: KTIK 201756Z AUTO 20013KT 10SM CLR 23/06 A2999 RMK AO2 SLP157 T02270060 10227 20079 58016
cycle: 18

Station Type Date Time Source
KTIK TAF 2019/04/20 17:06 UTC NOAA

TAF KTIK 201700Z 2017/2123 20012G18KT 9999 SKC QNH2986INS
BECMG 2022/2023 18009KT 9999 SKC 510202 QNH2985INS
BECMG 2105/2106 17009KT 9999 SCT150 WS020/19045KT QNH2982INS
BECMG 2114/2115 18015G25KT 9999 BKN150 QNH2981INS
BECMG 2117/2118 18025G35KT 9999 BKN150 510002 QNH2980INS TX25/2021Z TN13/2111Z

Example: see airport list